Time;durP1;ratioP1;P1;durP2;ratioP2;P2;SDS_P1;SDS_P2;PMS_P1;PMS_P2;Temp;Humidity;BMP_temperature;BMP_pressure;BME280_temperature;BME280_humidity;BME280_pressure;Samples;Min_cycle;Max_cycle;Signal;HPM_P1;HPM_P2
2023/01/21 00:01:55;;;;;;;24.38;13.48;;;0.00;99.90;;;;;;5051628;28;20569;-45
2023/01/21 00:04:21;;;;;;;24.40;13.75;;;0.00;99.90;;;;;;5068797;28;20692;-45
2023/01/21 00:06:48;;;;;;;27.67;13.10;;;0.10;99.90;;;;;;5071067;28;20629;-45
2023/01/21 00:09:13;;;;;;;25.85;13.18;;;0.00;99.90;;;;;;5071055;28;20528;-45
2023/01/21 00:11:39;;;;;;;21.48;12.68;;;0.00;99.90;;;;;;5070833;28;20174;-44
2023/01/21 00:14:05;;;;;;;19.42;12.38;;;0.00;99.90;;;;;;5071307;28;20185;-45
2023/01/21 00:16:31;;;;;;;20.92;12.30;;;0.10;99.90;;;;;;5071108;28;20166;-45
2023/01/21 00:18:56;;;;;;;18.75;12.43;;;0.20;99.90;;;;;;5071404;28;20288;-45
2023/01/21 00:21:22;;;;;;;23.73;12.82;;;0.10;99.90;;;;;;5071361;28;20208;-45
2023/01/21 00:23:47;;;;;;;28.10;14.30;;;0.10;99.90;;;;;;5071078;28;20202;-45
2023/01/21 00:26:13;;;;;;;20.65;11.25;;;0.10;99.90;;;;;;5071246;28;20181;-45
2023/01/21 00:28:42;;;;;;;22.13;11.65;;;0.00;99.90;;;;;;5071108;28;20556;-45
2023/01/21 00:31:09;;;;;;;21.88;11.88;;;0.00;99.90;;;;;;5070956;28;20162;-45
2023/01/21 00:33:34;;;;;;;20.02;12.18;;;0.00;99.90;;;;;;5056879;28;20217;-45
2023/01/21 00:36:02;;;;;;;24.15;12.82;;;0.00;99.90;;;;;;5067668;28;20194;-45
2023/01/21 00:38:28;;;;;;;21.25;11.68;;;0.00;99.90;;;;;;5070742;28;20204;-45
2023/01/21 00:41:02;;;;;;;23.90;12.30;;;0.00;99.90;;;;;;5071200;28;20162;-45
2023/01/21 00:43:28;;;;;;;22.05;13.00;;;-0.10;99.90;;;;;;5063206;28;20171;-45
2023/01/21 00:45:53;;;;;;;20.83;12.25;;;-0.10;99.90;;;;;;5054960;28;20173;-45
2023/01/21 00:48:20;;;;;;;22.80;12.13;;;-0.10;99.90;;;;;;5054745;28;20593;-45
2023/01/21 00:50:45;;;;;;;22.90;13.43;;;-0.10;99.90;;;;;;5054650;28;20170;-46
2023/01/21 00:53:11;;;;;;;20.45;11.30;;;-0.20;99.90;;;;;;5054586;28;20653;-45
2023/01/21 00:55:36;;;;;;;22.17;12.48;;;-0.20;99.90;;;;;;5054398;28;20526;-45
2023/01/21 00:58:02;;;;;;;20.10;12.25;;;-0.20;99.90;;;;;;5053040;28;20214;-45
2023/01/21 01:00:27;;;;;;;19.08;12.10;;;-0.20;99.90;;;;;;5054396;28;20174;-45
2023/01/21 01:02:53;;;;;;;24.30;11.98;;;-0.20;99.90;;;;;;5061159;28;20231;-45
2023/01/21 01:05:20;;;;;;;22.05;12.30;;;-0.20;99.90;;;;;;5074366;28;20181;-45
2023/01/21 01:07:46;;;;;;;20.58;12.10;;;-0.20;99.90;;;;;;5074387;28;20253;-45
2023/01/21 01:10:12;;;;;;;21.55;11.88;;;-0.10;99.90;;;;;;5074352;28;20252;-45
2023/01/21 01:12:38;;;;;;;19.73;11.13;;;-0.10;99.90;;;;;;5073184;28;20214;-45
2023/01/21 01:15:05;;;;;;;21.90;11.73;;;-0.10;99.90;;;;;;5073984;28;20202;-45
2023/01/21 01:17:30;;;;;;;23.77;11.90;;;-0.10;99.90;;;;;;5073924;28;20189;-45
2023/01/21 01:19:57;;;;;;;20.77;11.20;;;-0.10;99.90;;;;;;5074338;28;20185;-45
2023/01/21 01:22:22;;;;;;;20.13;11.63;;;-0.20;99.90;;;;;;5074441;28;20174;-45
2023/01/21 01:24:48;;;;;;;25.97;12.83;;;-0.10;99.90;;;;;;5073905;28;20174;-45
2023/01/21 01:27:13;;;;;;;23.17;12.93;;;-0.20;99.90;;;;;;5073825;28;20216;-45
2023/01/21 01:29:39;;;;;;;19.15;11.65;;;-0.20;99.90;;;;;;5073860;28;20649;-45
2023/01/21 01:32:04;;;;;;;23.73;12.77;;;-0.10;99.90;;;;;;5070213;28;20580;-45
2023/01/21 01:34:30;;;;;;;25.02;12.68;;;-0.30;99.90;;;;;;5053629;28;20233;-45
2023/01/21 01:36:55;;;;;;;27.83;12.98;;;-0.20;99.90;;;;;;5054238;28;20205;-45
2023/01/21 01:39:21;;;;;;;22.05;11.88;;;-0.20;99.90;;;;;;5053574;28;20202;-45
2023/01/21 01:41:47;;;;;;;23.92;11.18;;;-0.30;99.90;;;;;;5053508;28;20584;-45
2023/01/21 01:44:50;;;;;;;17.92;10.30;;;-0.30;99.90;;;;;;5053481;28;20178;-45
2023/01/21 01:47:16;;;;;;;20.30;11.57;;;-0.30;99.90;;;;;;5053452;28;20239;-46
2023/01/21 01:49:42;;;;;;;22.30;11.50;;;-0.40;99.90;;;;;;5053331;28;20174;-45
2023/01/21 01:52:11;;;;;;;20.73;11.98;;;-0.40;99.90;;;;;;5059081;28;20170;-45
2023/01/21 01:54:41;;;;;;;28.17;12.77;;;-0.40;99.90;;;;;;5062584;28;20224;-45
2023/01/21 01:57:09;;;;;;;21.67;11.48;;;-0.40;99.90;;;;;;5053229;28;20175;-45
2023/01/21 01:59:35;;;;;;;26.13;11.45;;;-0.50;99.90;;;;;;5053289;28;20224;-45
2023/01/21 02:02:06;;;;;;;25.88;12.10;;;-0.40;99.90;;;;;;5053187;28;20657;-45
2023/01/21 02:04:38;;;;;;;24.42;12.93;;;-0.40;99.90;;;;;;5061882;28;20565;-45
2023/01/21 02:07:03;;;;;;;25.30;13.30;;;-0.50;99.90;;;;;;5073275;28;20174;-45
2023/01/21 02:09:29;;;;;;;24.73;13.55;;;-0.40;99.90;;;;;;5073027;28;20205;-45
2023/01/21 02:12:00;;;;;;;24.58;13.02;;;-0.50;99.90;;;;;;5066812;28;20198;-45
2023/01/21 02:14:26;;;;;;;26.20;12.77;;;-0.50;99.90;;;;;;5053451;28;20179;-45
2023/01/21 02:17:20;;;;;;;23.48;13.23;;;-0.50;99.90;;;;;;5053266;28;20174;-45
2023/01/21 02:20:16;;;;;;;26.80;14.05;;;-0.50;99.90;;;;;;5052913;28;20261;-45
2023/01/21 02:23:02;;;;;;;23.63;13.77;;;-0.40;99.90;;;;;;5052865;28;20166;-45
2023/01/21 02:25:50;;;;;;;24.63;14.25;;;-0.50;99.90;;;;;;5054006;28;20683;-45
2023/01/21 02:28:53;;;;;;;23.67;13.50;;;-0.40;99.90;;;;;;5052636;28;20174;-45
2023/01/21 02:31:51;;;;;;;25.13;12.80;;;-0.50;99.90;;;;;;5052772;28;20208;-45
2023/01/21 02:34:43;;;;;;;26.10;14.05;;;-0.50;99.90;;;;;;5029766;28;20187;-45
2023/01/21 02:37:16;;;;;;;23.67;13.38;;;-0.50;99.90;;;;;;5052563;28;20622;-45
2023/01/21 02:39:50;;;;;;;22.60;13.63;;;-0.40;99.90;;;;;;5052462;28;20700;-45
2023/01/21 02:42:45;;;;;;;29.17;13.68;;;-0.40;99.90;;;;;;5052703;28;20245;-45
2023/01/21 02:45:32;;;;;;;23.40;12.20;;;-0.30;99.90;;;;;;5051353;28;20167;-44
2023/01/21 02:48:10;;;;;;;24.55;14.23;;;-0.30;99.90;;;;;;5052317;28;20170;-45
2023/01/21 02:50:49;;;;;;;27.65;14.20;;;-0.40;99.90;;;;;;5051115;28;20178;-45
2023/01/21 02:53:33;;;;;;;29.55;13.80;;;-0.20;99.90;;;;;;5052384;28;20182;-45
2023/01/21 02:56:12;;;;;;;26.05;14.18;;;-0.40;99.90;;;;;;5051996;28;20593;-45
2023/01/21 02:58:59;;;;;;;22.95;13.15;;;-0.40;99.90;;;;;;5052151;28;20206;-44
2023/01/21 03:01:43;;;;;;;25.30;13.27;;;-0.40;99.90;;;;;;5051136;28;20190;-45
2023/01/21 03:04:27;;;;;;;25.88;13.98;;;-0.40;99.90;;;;;;5059380;28;20296;-45
2023/01/21 03:07:15;;;;;;;22.33;12.25;;;-0.50;99.90;;;;;;5070466;28;20261;-45
2023/01/21 03:09:41;;;;;;;21.02;12.50;;;-0.40;99.90;;;;;;5071967;28;20174;-45
2023/01/21 03:12:33;;;;;;;23.75;12.52;;;-0.40;99.90;;;;;;5071700;28;20165;-45
2023/01/21 03:17:57;;;;;;;21.70;13.45;;;-0.40;99.90;;;;;;5072184;28;20212;-45
2023/01/21 03:20:39;;;;;;;23.13;13.45;;;-0.50;99.90;;;;;;5072142;28;20183;-44
2023/01/21 03:23:14;;;;;;;24.47;12.23;;;-0.60;99.90;;;;;;5071862;28;20177;-45
2023/01/21 03:25:40;;;;;;;24.05;11.95;;;-0.70;99.90;;;;;;5071551;28;20170;-45
2023/01/21 03:28:12;;;;;;;21.77;12.75;;;-0.80;99.90;;;;;;5071658;28;20519;-45
2023/01/21 03:30:41;;;;;;;23.88;13.18;;;-0.80;99.90;;;;;;5070624;28;20648;-45
2023/01/21 03:33:11;;;;;;;24.38;13.63;;;-0.90;99.90;;;;;;5071597;28;20216;-45
2023/01/21 03:35:41;;;;;;;25.90;13.52;;;-0.90;99.90;;;;;;5067363;28;20239;-44
2023/01/21 03:38:16;;;;;;;27.83;14.63;;;-0.80;99.90;;;;;;5071341;28;20197;-45
2023/01/21 03:40:54;;;;;;;23.40;12.93;;;-0.90;99.90;;;;;;5071362;28;20165;-45
2023/01/21 03:43:20;;;;;;;22.00;12.57;;;-0.80;99.90;;;;;;5071370;28;20174;-45
2023/01/21 03:45:53;;;;;;;22.70;13.25;;;-0.80;99.90;;;;;;5071427;28;20178;-45
2023/01/21 03:48:31;;;;;;;22.95;12.35;;;-0.80;99.90;;;;;;5071358;28;20591;-45
2023/01/21 03:51:05;;;;;;;28.00;14.00;;;-0.80;99.90;;;;;;5071383;28;20563;-45
2023/01/21 03:53:31;;;;;;;24.73;14.50;;;-0.80;99.90;;;;;;5071425;28;20257;-47
2023/01/21 03:55:58;;;;;;;24.75;13.18;;;-0.90;99.90;;;;;;5071339;28;20246;-46
2023/01/21 03:58:24;;;;;;;25.02;13.20;;;-0.80;99.90;;;;;;5071788;28;20205;-47
2023/01/21 04:00:50;;;;;;;22.92;13.38;;;-0.80;99.90;;;;;;5071357;28;20245;-48
2023/01/21 04:03:15;;;;;;;24.55;13.65;;;-0.80;99.90;;;;;;5070619;28;20305;-46
2023/01/21 04:05:41;;;;;;;26.75;12.60;;;-0.70;99.90;;;;;;5051084;28;20182;-46
2023/01/21 04:08:06;;;;;;;24.65;13.68;;;-0.80;99.90;;;;;;5051193;28;20224;-45
2023/01/21 04:10:32;;;;;;;26.80;14.80;;;-0.80;99.90;;;;;;5051074;28;20245;-45
2023/01/21 04:12:57;;;;;;;25.63;13.30;;;-0.80;99.90;;;;;;5051176;28;20595;-45
2023/01/21 04:15:23;;;;;;;28.40;14.43;;;-0.80;99.90;;;;;;5051331;28;20544;-45
2023/01/21 04:17:48;;;;;;;29.73;14.23;;;-0.80;99.90;;;;;;5053583;28;20546;-44
2023/01/21 04:20:14;;;;;;;26.08;14.05;;;-0.80;99.90;;;;;;5055177;28;20224;-45
2023/01/21 04:22:40;;;;;;;25.77;14.63;;;-0.70;99.90;;;;;;5055029;28;20158;-45
2023/01/21 04:25:05;;;;;;;26.85;14.38;;;-0.80;99.90;;;;;;5055114;28;20197;-45
2023/01/21 04:27:31;;;;;;;31.05;14.95;;;-0.70;99.90;;;;;;5054947;28;20167;-45
2023/01/21 04:29:56;;;;;;;25.77;13.73;;;-0.80;99.90;;;;;;5054986;28;20173;-44
2023/01/21 04:32:22;;;;;;;28.50;14.30;;;-0.70;99.90;;;;;;5055325;28;20167;-44
2023/01/21 04:34:47;;;;;;;27.80;14.10;;;-0.80;99.90;;;;;;5069652;28;20181;-45
2023/01/21 04:37:13;;;;;;;26.33;15.13;;;-0.80;99.90;;;;;;5074453;28;20182;-44
2023/01/21 04:39:38;;;;;;;29.30;15.27;;;-0.80;99.90;;;;;;5074777;28;20284;-45
2023/01/21 04:42:04;;;;;;;26.00;14.80;;;-0.80;99.90;;;;;;5074793;28;20162;-45
2023/01/21 04:44:30;;;;;;;25.15;14.20;;;-0.70;99.90;;;;;;5074638;28;20170;-44
2023/01/21 04:46:55;;;;;;;35.70;15.15;;;-0.70;99.90;;;;;;5075054;28;20177;-45
2023/01/21 04:49:21;;;;;;;29.85;15.02;;;-0.70;99.90;;;;;;5074842;28;20177;-44
2023/01/21 04:51:46;;;;;;;24.63;15.38;;;-0.80;99.90;;;;;;5074502;28;20637;-45
2023/01/21 04:54:12;;;;;;;27.50;14.43;;;-0.80;99.90;;;;;;5074837;28;20169;-45
2023/01/21 04:56:37;;;;;;;29.50;14.48;;;-0.80;99.90;;;;;;5074313;28;20174;-45
2023/01/21 04:59:03;;;;;;;27.77;14.80;;;-0.80;99.90;;;;;;5074545;28;20201;-45
2023/01/21 05:01:29;;;;;;;25.02;13.15;;;-0.80;99.90;;;;;;5074232;28;20245;-45
2023/01/21 05:03:54;;;;;;;23.63;13.88;;;-0.80;99.90;;;;;;5066548;28;20225;-45
2023/01/21 05:06:20;;;;;;;21.63;12.77;;;-0.80;99.90;;;;;;5054202;28;20174;-45
2023/01/21 05:08:45;;;;;;;30.00;14.93;;;-0.80;99.90;;;;;;5053004;28;20182;-45
2023/01/21 05:11:16;;;;;;;32.65;14.23;;;-0.80;99.90;;;;;;5054270;28;20570;-44
2023/01/21 05:13:42;;;;;;;28.77;13.98;;;-0.80;99.90;;;;;;5054118;28;20163;-45
2023/01/21 05:16:08;;;;;;;24.67;13.60;;;-0.80;99.90;;;;;;5053936;28;20232;-45
2023/01/21 05:18:36;;;;;;;29.90;14.40;;;-0.80;99.90;;;;;;5053778;28;20207;-45
2023/01/21 05:21:01;;;;;;;25.75;14.80;;;-0.80;99.90;;;;;;5054026;28;20167;-45
2023/01/21 05:23:27;;;;;;;28.37;14.43;;;-0.80;99.90;;;;;;5059686;28;20166;-45
2023/01/21 05:25:52;;;;;;;26.73;14.60;;;-0.80;99.90;;;;;;5074141;28;20173;-45
2023/01/21 05:28:18;;;;;;;26.10;13.65;;;-0.80;99.90;;;;;;5073316;28;20162;-46
2023/01/21 05:30:43;;;;;;;27.95;14.40;;;-0.90;99.90;;;;;;5073799;28;20715;-45
2023/01/21 05:33:09;;;;;;;24.67;14.18;;;-0.90;99.90;;;;;;5056988;28;20162;-47
2023/01/21 05:35:34;;;;;;;25.88;15.07;;;-0.90;99.90;;;;;;5053881;28;20645;-46
2023/01/21 05:38:00;;;;;;;28.58;14.38;;;-1.00;99.90;;;;;;5053578;28;20252;-46
2023/01/21 05:40:26;;;;;;;25.98;15.05;;;-0.90;99.90;;;;;;5053714;28;20273;-44
2023/01/21 05:42:51;;;;;;;28.27;13.77;;;-0.90;99.90;;;;;;5056973;28;20188;-45
2023/01/21 05:45:17;;;;;;;29.27;13.77;;;-1.00;99.90;;;;;;5073737;28;20174;-45
2023/01/21 05:47:42;;;;;;;27.80;14.10;;;-1.00;99.90;;;;;;5073561;28;20527;-45
2023/01/21 05:50:11;;;;;;;26.70;13.48;;;-1.00;99.90;;;;;;5073500;28;20178;-46
2023/01/21 05:52:37;;;;;;;28.33;14.60;;;-1.00;99.90;;;;;;5072945;28;20249;-46
2023/01/21 05:55:03;;;;;;;27.83;14.43;;;-0.90;99.90;;;;;;5073337;28;20249;-45
2023/01/21 05:57:30;;;;;;;25.55;12.52;;;-1.00;99.90;;;;;;5072018;28;20582;-45
2023/01/21 05:59:56;;;;;;;27.00;13.65;;;-1.10;99.90;;;;;;5073307;28;20219;-45
2023/01/21 06:02:22;;;;;;;26.05;15.00;;;-1.10;99.90;;;;;;5072783;28;20169;-45
2023/01/21 06:04:47;;;;;;;26.80;14.20;;;-1.10;99.90;;;;;;5072860;28;20294;-45
2023/01/21 06:07:13;;;;;;;25.75;13.93;;;-1.10;99.90;;;;;;5073124;28;20636;-45
2023/01/21 06:09:38;;;;;;;27.15;14.10;;;-1.10;99.90;;;;;;5073050;28;20653;-46
2023/01/21 06:12:04;;;;;;;29.33;15.38;;;-1.20;99.90;;;;;;5073080;28;20630;-45
2023/01/21 06:14:29;;;;;;;30.48;15.32;;;-1.00;99.90;;;;;;5073055;28;20660;-45
2023/01/21 06:16:55;;;;;;;28.70;15.65;;;-1.10;99.90;;;;;;5073121;28;20253;-45
2023/01/21 06:19:20;;;;;;;31.90;16.58;;;-1.10;99.90;;;;;;5073115;28;20285;-46
2023/01/21 06:21:46;;;;;;;29.27;15.00;;;-1.10;99.90;;;;;;5071534;28;20206;-45
2023/01/21 06:24:12;;;;;;;29.88;15.25;;;-1.10;99.90;;;;;;5055838;28;20236;-45
2023/01/21 06:26:37;;;;;;;30.02;16.13;;;-1.20;99.90;;;;;;5071902;28;20176;-45
2023/01/21 06:29:03;;;;;;;27.02;14.90;;;-1.10;99.90;;;;;;5072624;28;20173;-45
2023/01/21 06:31:28;;;;;;;34.47;16.10;;;-1.10;99.90;;;;;;5060555;28;20175;-45
2023/01/21 06:33:54;;;;;;;32.60;16.83;;;-1.10;99.90;;;;;;5053028;28;20650;-45
2023/01/21 06:36:19;;;;;;;34.70;16.40;;;-1.00;99.90;;;;;;5072505;28;20597;-45
2023/01/21 06:38:45;;;;;;;30.70;17.02;;;-1.10;99.90;;;;;;5072348;28;20214;-45
2023/01/21 06:41:10;;;;;;;32.03;16.48;;;-1.10;99.90;;;;;;5071370;28;20204;-45
2023/01/21 06:43:36;;;;;;;27.88;15.98;;;-1.10;99.90;;;;;;5056389;28;20647;-45
2023/01/21 06:46:01;;;;;;;29.92;15.95;;;-1.10;99.90;;;;;;5051990;28;20178;-45
2023/01/21 06:48:27;;;;;;;38.42;16.70;;;-1.10;99.90;;;;;;5052292;28;20181;-45
2023/01/21 06:50:52;;;;;;;29.25;15.27;;;-1.10;99.90;;;;;;5052491;28;20202;-45
2023/01/21 06:53:18;;;;;;;30.73;16.38;;;-1.10;99.90;;;;;;5052321;28;20241;-45
2023/01/21 06:55:46;;;;;;;28.70;14.98;;;-1.10;99.90;;;;;;5052492;28;20181;-45
2023/01/21 06:58:11;;;;;;;34.60;15.93;;;-1.10;99.90;;;;;;5052351;28;20210;-45
2023/01/21 07:00:37;;;;;;;31.95;15.73;;;-1.10;99.90;;;;;;5052072;28;20181;-45
2023/01/21 07:03:02;;;;;;;31.80;15.30;;;-1.10;99.90;;;;;;5064633;28;20174;-45
2023/01/21 07:05:28;;;;;;;33.28;15.90;;;-1.10;99.90;;;;;;5071642;28;20166;-45
2023/01/21 07:07:55;;;;;;;30.90;16.73;;;-1.10;99.90;;;;;;5072237;28;20641;-45
2023/01/21 07:10:21;;;;;;;29.07;16.37;;;-1.10;99.90;;;;;;5071877;28;20219;-45
2023/01/21 07:12:47;;;;;;;31.33;16.52;;;-1.10;99.90;;;;;;5071952;28;20184;-45
2023/01/21 07:15:12;;;;;;;30.02;15.77;;;-1.10;99.90;;;;;;5071680;28;20173;-45
2023/01/21 07:17:38;;;;;;;29.40;15.53;;;-1.20;99.90;;;;;;5069217;28;20193;-45
2023/01/21 07:20:04;;;;;;;31.33;17.77;;;-1.10;99.90;;;;;;5051770;28;20253;-45
2023/01/21 07:22:32;;;;;;;32.73;17.40;;;-1.10;99.90;;;;;;5051651;28;20174;-45
2023/01/21 07:24:58;;;;;;;30.08;15.35;;;-1.10;99.90;;;;;;5051319;28;20171;-45
2023/01/21 07:27:23;;;;;;;31.13;16.80;;;-1.20;99.90;;;;;;5051828;28;20173;-46
2023/01/21 07:29:49;;;;;;;33.55;17.50;;;-1.10;99.90;;;;;;5071562;28;20174;-45
2023/01/21 07:32:14;;;;;;;42.43;16.40;;;-1.20;99.90;;;;;;5071542;28;20177;-46
2023/01/21 07:34:40;;;;;;;29.27;16.15;;;-1.20;99.90;;;;;;5071532;28;20518;-45
2023/01/21 07:37:06;;;;;;;29.02;16.73;;;-1.20;99.90;;;;;;5071359;28;20533;-45
2023/01/21 07:39:31;;;;;;;34.05;16.30;;;-1.10;99.90;;;;;;5071350;28;20206;-46
2023/01/21 07:41:57;;;;;;;32.17;16.83;;;-1.20;99.90;;;;;;5071370;28;20158;-45
2023/01/21 07:44:22;;;;;;;36.97;16.70;;;-1.10;99.90;;;;;;5071769;28;20242;-46
2023/01/21 07:46:48;;;;;;;33.33;15.88;;;-1.10;99.90;;;;;;5071259;28;20208;-46
2023/01/21 07:49:16;;;;;;;29.27;17.00;;;-1.10;99.90;;;;;;5071612;28;20645;-46
2023/01/21 07:51:45;;;;;;;32.83;16.60;;;-1.00;99.90;;;;;;5061193;28;20182;-45
2023/01/21 07:54:11;;;;;;;30.77;16.67;;;-1.10;99.90;;;;;;5051565;28;20272;-45
2023/01/21 07:56:37;;;;;;;32.77;16.40;;;-1.00;99.90;;;;;;5051481;28;20177;-46
2023/01/21 07:59:02;;;;;;;28.17;15.77;;;-1.00;99.90;;;;;;5051247;28;20579;-45
2023/01/21 08:01:30;;;;;;;31.70;17.10;;;-1.00;99.90;;;;;;5051423;28;20520;-45
2023/01/21 08:03:56;;;;;;;32.75;17.17;;;-0.90;99.90;;;;;;5050979;28;20226;-45
2023/01/21 08:06:22;;;;;;;30.10;15.50;;;-0.80;99.90;;;;;;5051905;28;20220;-45
2023/01/21 08:08:47;;;;;;;31.85;17.60;;;-0.90;99.90;;;;;;5050081;28;20170;-46
2023/01/21 08:11:13;;;;;;;31.58;15.63;;;-0.80;99.90;;;;;;5051442;28;20166;-45
2023/01/21 08:13:39;;;;;;;32.72;16.95;;;-0.80;99.90;;;;;;5052474;28;20217;-45
2023/01/21 08:16:05;;;;;;;29.73;16.63;;;-0.90;99.90;;;;;;5068626;28;20546;-45
2023/01/21 08:18:31;;;;;;;31.57;17.33;;;-0.90;99.90;;;;;;5071241;28;20240;-46
2023/01/21 08:20:58;;;;;;;33.83;17.45;;;-0.90;99.90;;;;;;5070625;28;20205;-45
2023/01/21 08:23:25;;;;;;;34.63;17.55;;;-0.80;99.90;;;;;;5064763;28;20537;-45
2023/01/21 08:25:50;;;;;;;35.00;16.70;;;-0.70;99.90;;;;;;5070966;28;20251;-45
2023/01/21 08:28:16;;;;;;;31.52;17.55;;;-0.80;99.90;;;;;;5051033;28;20223;-46
2023/01/21 08:30:42;;;;;;;43.97;26.27;;;-0.70;99.90;;;;;;5049852;28;20412;-45
2023/01/21 08:33:07;;;;;;;37.10;20.08;;;-0.60;99.90;;;;;;5050635;28;20166;-46
2023/01/21 08:35:33;;;;;;;37.58;19.38;;;-0.50;99.90;;;;;;5050569;28;20189;-45
2023/01/21 08:38:00;;;;;;;35.92;20.98;;;-0.50;99.90;;;;;;5050803;28;20226;-45
2023/01/21 08:40:26;;;;;;;35.83;19.00;;;-0.50;99.90;;;;;;5057912;28;20179;-45
2023/01/21 08:43:01;;;;;;;31.13;17.25;;;-0.50;99.90;;;;;;5071225;28;20169;-46
2023/01/21 08:45:27;;;;;;;36.25;19.65;;;-0.40;99.90;;;;;;5070808;28;20194;-45
2023/01/21 08:47:53;;;;;;;33.60;19.17;;;-0.50;99.90;;;;;;5070869;28;20735;-45
2023/01/21 08:50:19;;;;;;;39.58;20.45;;;-0.40;99.90;;;;;;5070630;28;20162;-46
2023/01/21 08:52:53;;;;;;;32.67;17.40;;;-0.30;99.90;;;;;;5070469;28;20174;-46
2023/01/21 08:55:19;;;;;;;29.70;15.70;;;-0.20;99.90;;;;;;5058966;28;20167;-46
2023/01/21 08:57:45;;;;;;;38.40;20.67;;;-0.30;99.90;;;;;;5050511;28;20206;-45
2023/01/21 09:00:13;;;;;;;32.75;17.67;;;-0.30;99.90;;;;;;5050686;28;20191;-46
2023/01/21 09:02:38;;;;;;;36.33;19.65;;;-0.30;99.90;;;;;;5050720;28;20184;-45
2023/01/21 09:05:04;;;;;;;34.53;19.17;;;-0.20;99.90;;;;;;5053042;28;20761;-46
2023/01/21 09:07:30;;;;;;;35.70;17.95;;;-0.20;99.90;;;;;;5054161;28;20171;-45
2023/01/21 09:09:55;;;;;;;35.53;18.73;;;-0.10;99.90;;;;;;5054177;28;20185;-45
2023/01/21 09:12:21;;;;;;;33.83;17.63;;;0.00;99.90;;;;;;5054504;28;20197;-45
2023/01/21 09:14:47;;;;;;;36.70;18.08;;;-0.20;99.90;;;;;;5054327;28;20174;-46
2023/01/21 09:17:12;;;;;;;37.35;18.83;;;-0.10;99.90;;;;;;5054083;28;20646;-46
2023/01/21 09:19:38;;;;;;;19.40;11.95;;;-0.10;99.90;;;;;;5053963;28;20242;-46
2023/01/21 09:22:05;;;;;;;33.95;17.90;;;-0.10;99.90;;;;;;5053879;28;20182;-45
2023/01/21 09:24:31;;;;;;;23.55;13.35;;;-0.10;99.90;;;;;;5054157;28;20177;-45
2023/01/21 09:26:56;;;;;;;30.35;15.55;;;-0.10;99.90;;;;;;5053417;28;20183;-45
2023/01/21 09:29:22;;;;;;;29.92;15.73;;;0.00;99.90;;;;;;5053699;28;20194;-45
2023/01/21 09:31:47;;;;;;;33.92;17.35;;;0.00;99.90;;;;;;5053567;28;20159;-46
2023/01/21 09:34:13;;;;;;;32.75;15.52;;;0.00;99.90;;;;;;5053575;28;20182;-45
2023/01/21 09:36:39;;;;;;;27.85;16.75;;;0.00;99.90;;;;;;5053615;28;20170;-45
2023/01/21 09:39:05;;;;;;;34.17;17.38;;;0.10;99.90;;;;;;5053263;28;20619;-45
2023/01/21 09:41:48;;;;;;;33.58;15.23;;;0.10;99.90;;;;;;5053717;28;20170;-46
2023/01/21 09:44:31;;;;;;;23.10;12.15;;;0.20;99.90;;;;;;5053648;28;20163;-46
2023/01/21 09:47:21;;;;;;;32.63;17.67;;;0.10;99.90;;;;;;5052231;28;20210;-45
2023/01/21 09:49:51;;;;;;;33.10;17.95;;;0.20;99.90;;;;;;5072184;28;20192;-45
2023/01/21 09:52:37;;;;;;;30.95;15.30;;;0.10;99.90;;;;;;5073210;28;20220;-46
2023/01/21 09:55:04;;;;;;;28.52;15.70;;;0.20;99.90;;;;;;5073044;28;20177;-45
2023/01/21 09:57:42;;;;;;;28.85;14.55;;;0.20;99.90;;;;;;5072875;28;20528;-46
2023/01/21 10:00:35;;;;;;;28.58;10.50;;;0.20;99.90;;;;;;5073446;28;20173;-45
2023/01/21 10:03:23;;;;;;;27.15;14.23;;;0.20;99.90;;;;;;5073367;28;20225;-45
2023/01/21 10:05:52;;;;;;;28.48;15.85;;;0.20;99.90;;;;;;5073199;28;20166;-45
2023/01/21 10:08:25;;;;;;;25.30;11.88;;;0.30;99.90;;;;;;5073359;28;20169;-45
2023/01/21 10:11:10;;;;;;;30.98;15.63;;;0.30;99.90;;;;;;5073755;28;20224;-45
2023/01/21 10:13:51;;;;;;;25.88;13.70;;;0.40;99.90;;;;;;5073205;28;20174;-45
2023/01/21 10:16:35;;;;;;;18.98;12.15;;;0.40;99.90;;;;;;5071856;28;20577;-45
2023/01/21 10:19:04;;;;;;;24.02;13.10;;;0.50;99.90;;;;;;5072488;28;20209;-45
2023/01/21 10:21:55;;;;;;;26.90;15.57;;;0.50;99.90;;;;;;5072762;28;20561;-45
2023/01/21 10:24:30;;;;;;;18.65;10.98;;;0.60;99.90;;;;;;5071349;28;20740;-45
2023/01/21 10:26:56;;;;;;;15.02;9.15;;;0.40;99.90;;;;;;5071893;28;20577;-45
2023/01/21 10:29:24;;;;;;;23.58;13.95;;;0.40;99.90;;;;;;5072859;28;20227;-45
2023/01/21 10:32:00;;;;;;;24.30;13.07;;;0.70;99.90;;;;;;5072859;28;20166;-46
2023/01/21 10:34:30;;;;;;;25.58;12.98;;;0.70;99.90;;;;;;5072435;28;20569;-45
2023/01/21 10:37:02;;;;;;;25.80;14.57;;;0.70;99.90;;;;;;5072374;28;20197;-45
2023/01/21 10:39:46;;;;;;;20.83;12.40;;;0.80;99.90;;;;;;5072294;28;20193;-45
2023/01/21 10:42:44;;;;;;;20.35;10.68;;;0.80;99.90;;;;;;5072368;28;20169;-46
2023/01/21 10:45:30;;;;;;;26.15;13.52;;;0.80;99.90;;;;;;5071920;28;20166;-45
2023/01/21 10:48:10;;;;;;;29.98;16.42;;;0.80;99.90;;;;;;5060606;28;20658;-45
2023/01/21 10:51:00;;;;;;;30.27;15.57;;;0.90;99.90;;;;;;5052223;28;20190;-45
2023/01/21 10:53:37;;;;;;;24.08;13.20;;;0.90;99.90;;;;;;5051968;28;20159;-46
2023/01/21 10:56:33;;;;;;;20.45;11.93;;;1.00;99.90;;;;;;5051828;28;20166;-46
2023/01/21 10:59:31;;;;;;;25.13;14.82;;;0.90;99.90;;;;;;5051608;28;20221;-46
2023/01/21 11:02:08;;;;;;;25.42;12.07;;;0.90;99.90;;;;;;5029066;28;20183;-46
2023/01/21 11:04:38;;;;;;;28.55;15.00;;;0.90;99.90;;;;;;5051643;28;20214;-45
2023/01/21 11:07:06;;;;;;;31.17;15.65;;;1.00;99.90;;;;;;5051685;28;20250;-45
2023/01/21 11:09:40;;;;;;;27.30;15.65;;;0.90;99.90;;;;;;5051708;28;20174;-46
2023/01/21 11:12:09;;;;;;;28.85;15.23;;;1.00;99.90;;;;;;5050540;28;20174;-45
2023/01/21 11:14:35;;;;;;;28.90;15.90;;;1.10;99.90;;;;;;5051581;28;20166;-46
2023/01/21 11:17:00;;;;;;;32.72;16.65;;;1.10;99.90;;;;;;5057106;28;20170;-45
2023/01/21 11:19:31;;;;;;;30.25;16.33;;;1.20;99.90;;;;;;5071530;28;20611;-46
2023/01/21 11:22:03;;;;;;;27.60;16.52;;;1.20;99.90;;;;;;5071457;28;20170;-45
2023/01/21 11:24:31;;;;;;;26.58;16.05;;;1.20;99.90;;;;;;5071250;28;20166;-48
2023/01/21 11:27:00;;;;;;;28.23;16.02;;;1.30;99.90;;;;;;5066329;28;20171;-46
2023/01/21 11:29:37;;;;;;;34.03;16.23;;;1.30;99.90;;;;;;5051160;28;20171;-46
2023/01/21 11:32:21;;;;;;;25.83;14.75;;;1.20;99.90;;;;;;5051158;28;20158;-45
2023/01/21 11:34:52;;;;;;;22.67;13.77;;;1.20;99.90;;;;;;5049871;28;20634;-46
2023/01/21 11:37:24;;;;;;;25.67;15.48;;;1.30;99.90;;;;;;5051202;28;20185;-46
2023/01/21 11:39:59;;;;;;;27.38;15.93;;;1.30;99.90;;;;;;5051556;28;20604;-46
2023/01/21 11:42:25;;;;;;;26.55;15.55;;;1.40;99.90;;;;;;5051090;28;20237;-46
2023/01/21 11:45:00;;;;;;;30.13;15.35;;;1.30;99.90;;;;;;5051522;28;20263;-46
2023/01/21 11:47:37;;;;;;;26.98;14.88;;;1.30;99.90;;;;;;5061052;28;20660;-46
2023/01/21 11:50:12;;;;;;;29.27;13.50;;;1.30;99.90;;;;;;5071193;28;20164;-46
2023/01/21 11:52:38;;;;;;;28.45;14.93;;;1.20;99.90;;;;;;5071120;28;20667;-46
2023/01/21 11:55:16;;;;;;;28.58;14.88;;;1.30;99.90;;;;;;5070744;28;20178;-45
2023/01/21 11:57:45;;;;;;;22.75;13.30;;;1.30;99.90;;;;;;5071764;28;20669;-45
2023/01/21 12:00:18;;;;;;;24.52;14.07;;;1.30;99.90;;;;;;5071648;28;20174;-45
2023/01/21 12:02:54;;;;;;;25.85;14.00;;;1.30;99.90;;;;;;5071596;28;20214;-46
2023/01/21 12:05:25;;;;;;;22.98;12.50;;;1.30;99.90;;;;;;5072281;28;20193;-46
2023/01/21 12:07:51;;;;;;;21.52;10.77;;;1.50;99.90;;;;;;5071976;28;20206;-45
2023/01/21 12:10:32;;;;;;;24.27;14.13;;;1.40;99.90;;;;;;5071832;28;20201;-45
2023/01/21 12:13:22;;;;;;;22.98;12.68;;;1.60;99.90;;;;;;5071208;28;20216;-46
2023/01/21 12:16:12;;;;;;;27.50;15.57;;;1.60;99.90;;;;;;5071532;28;20166;-45
2023/01/21 12:18:52;;;;;;;27.02;13.20;;;1.70;99.90;;;;;;5062889;28;20206;-46
2023/01/21 12:21:45;;;;;;;33.22;16.15;;;1.80;99.90;;;;;;5051318;28;20165;-46
2023/01/21 12:24:23;;;;;;;32.90;18.02;;;1.80;99.90;;;;;;5052360;28;20236;-46
2023/01/21 12:27:19;;;;;;;29.15;16.73;;;1.80;99.90;;;;;;5052064;28;20278;-46
2023/01/21 12:30:02;;;;;;;26.70;15.00;;;1.90;99.90;;;;;;5051227;28;20163;-45
2023/01/21 12:32:43;;;;;;;25.58;13.57;;;2.00;99.90;;;;;;5051253;28;20355;-45
2023/01/21 12:35:34;;;;;;;27.63;14.40;;;1.90;99.90;;;;;;5059198;28;20191;-45
2023/01/21 12:38:03;;;;;;;32.08;17.13;;;2.00;99.90;;;;;;5059988;28;20233;-46
2023/01/21 12:40:32;;;;;;;31.40;17.27;;;1.90;99.90;;;;;;5063573;28;20690;-45
2023/01/21 12:43:13;;;;;;;28.70;16.45;;;2.00;99.90;;;;;;5057388;28;20228;-48
2023/01/21 12:45:50;;;;;;;38.33;17.02;;;2.00;99.90;;;;;;5055221;28;20692;-49
2023/01/21 12:48:36;;;;;;;29.70;15.77;;;1.90;99.90;;;;;;5055101;28;20174;-48
2023/01/21 12:51:09;;;;;;;28.88;16.90;;;1.90;99.90;;;;;;5054430;28;20177;-46